Azamara Quest — V7DM6 — position and weather

sailwx.info

Track history (hours):
 
Tides and Currents Weather Stations Pressure Air Temp Water Temp Dewpoint Dewpoint Depression Visibility Wind Speed Wind Dir Waves Ship Positions

Azamara Quest

Last reported at 2017-Dec-11 17:00 UTC. Time now 2017-Dec-12 04:24 UTC.
Position N 51°50' E 001°56'.

Length 184 m; draft 10.5 m.

Type: Tanker. MMSI: 538005401.

Date/timePositionNaut miles runAvg speedWind from/ knotsBaromVisibWave heightAir tempDewpointWater temp
2017-Dec-11 17:00N 51°50' E 001°56'713.8
2017-Dec-11 16:30N 51°53' E 002°06'43012.5
2017-Dec-10 06:02N 57°44' E 009°17'011.8
2017-Dec-10 06:00N 57°44' E 009°18'612.0
2017-Dec-10 05:30N 57°46' E 009°29'612.2
2017-Dec-10 04:59N 57°49' E 009°39'3111.6
2017-Dec-10 02:17N 57°50' E 010°38'311.4
2017-Dec-10 02:00N 57°49' E 010°44'612.6
2017-Dec-10 01:30N 57°45' E 010°52'612.9
2017-Dec-10 01:00N 57°40' E 011°01'612.7
2017-Dec-10 00:30N 57°36' E 011°10'612.1
2017-Dec-10 00:00N 57°32' E 011°18'612.1
2017-Dec-09 23:30N 57°27' E 011°26'612.4
2017-Dec-09 23:00N 57°22' E 011°30'612.3
2017-Dec-09 22:30N 57°16' E 011°34'612.5
2017-Dec-09 22:01N 57°10' E 011°38'612.6
2017-Dec-09 21:30N 57°04' E 011°42'11210.8
2017-Dec-09 11:07N 55°14' E 011°06'111.0
2017-Dec-09 11:00N 55°12' E 011°06'611.7
2017-Dec-09 10:30N 55°08' E 010°60'611.4
2017-Dec-09 10:00N 55°02' E 011°00'611.2
2017-Dec-09 09:31N 54°57' E 010°56'5 9.8
2017-Dec-09 09:00N 54°53' E 010°51'510.5
2017-Dec-09 08:31N 54°48' E 010°50'611.5
2017-Dec-09 08:00N 54°42' E 010°47'510.8
2017-Dec-09 07:30N 54°39' E 010°54'510.6
2017-Dec-09 07:01N 54°36' E 011°02'510.7
2017-Dec-09 06:30N 54°36' E 011°11'510.9
2017-Dec-09 06:00N 54°33' E 011°19'611.1
2017-Dec-09 05:30N 54°31' E 011°28'510.7
2017-Dec-09 05:01N 54°29' E 011°36'510.9
2017-Dec-09 04:30N 54°27' E 011°45'1610.3
2017-Dec-09 03:00N 54°28' E 012°12'510.8
2017-Dec-09 02:31N 54°33' E 012°15'6010.7
2017-Dec-08 20:56N 55°01' E 013°47'911.6
2017-Dec-08 20:11N 55°04' E 014°01'611.4
2017-Dec-08 19:40N 55°08' E 014°09'311.9
2017-Dec-08 19:27N 55°09' E 014°12'712.1
2017-Dec-08 18:52N 55°15' E 014°20'412.1
2017-Dec-08 18:31N 55°18' E 014°24'612.1
2017-Dec-08 18:00N 55°23' E 014°31'711.8
2017-Dec-08 17:25N 55°28' E 014°40'512.0
2017-Dec-08 17:00N 55°30' E 014°48'712.1
2017-Dec-08 16:27N 55°33' E 014°58'612.1
2017-Dec-08 15:57N 55°36' E 015°08'511.8
2017-Dec-08 15:30N 55°38' E 015°16'611.8
2017-Dec-08 15:00N 55°40' E 015°26'611.7
2017-Dec-08 14:30N 55°42' E 015°36'611.7
2017-Dec-08 14:00N 55°43' E 015°46'611.8
2017-Dec-08 13:30N 55°44' E 015°56'611.6
2017-Dec-08 13:00N 55°46' E 016°06'611.7
2017-Dec-08 12:30N 55°47' E 016°16'611.6
2017-Dec-08 12:00N 55°49' E 016°26'611.5
2017-Dec-08 11:31N 55°50' E 016°36'30611.0
2017-Dec-07 07:40N 59°35' E 023°03'212.9
2017-Dec-07 07:30N 59°36' E 023°07'613.0
2017-Dec-07 07:00N 59°38' E 023°19'713.0
2017-Dec-07 06:30N 59°40' E 023°32'713.1
2017-Dec-07 06:00N 59°41' E 023°44'713.2
2017-Dec-07 05:30N 59°43' E 023°57'713.3
2017-Dec-07 05:00N 59°45' E 024°10'613.3
2017-Dec-07 04:31N 59°47' E 024°22'713.2
2017-Dec-07 04:00N 59°48' E 024°35'713.4
2017-Dec-07 03:30N 59°50' E 024°48'713.4
2017-Dec-07 03:00N 59°51' E 025°01'612.9
2017-Dec-07 02:30N 59°53' E 025°13'713.2
2017-Dec-07 01:57N 59°57' E 025°25'612.9
2017-Dec-07 01:30N 60°01' E 025°33'  
2017-Dec-04 10:30N 59°39' E 024°28'612.3
2017-Dec-04 10:00N 59°34' E 024°25'510.4
2017-Dec-04 09:30N 59°29' E 024°31'0 0.3
2017-Dec-04 09:00N 59°29' E 024°31'0 0.0
2017-Dec-04 08:30N 59°29' E 024°31'0 0.1
2017-Dec-04 08:00N 59°29' E 024°31'0 0.0
2017-Dec-04 07:30N 59°29' E 024°31'0 0.0
2017-Dec-04 07:00N 59°29' E 024°31'0 0.0
2017-Dec-04 06:30N 59°29' E 024°31'0 0.4
2017-Dec-04 06:00N 59°29' E 024°31'1 2.6
2017-Dec-04 05:31N 59°30' E 024°28'612.5
2017-Dec-04 05:00N 59°29' E 024°16'712.6
2017-Dec-04 04:28N 59°29' E 024°02'1512.6
2017-Dec-04 03:15N 59°28' E 023°33'312.5
2017-Dec-04 02:59N 59°28' E 023°26'612.6
2017-Dec-04 02:30N 59°27' E 023°14'29312.6
2017-Dec-03 03:19N 56°02' E 016°43'413.3
2017-Dec-03 03:00N 56°00' E 016°37'713.1
2017-Dec-03 02:30N 55°57' E 016°26'713.2
2017-Dec-03 02:00N 55°54' E 016°16'713.1
2017-Dec-03 01:31N 55°51' E 016°06'713.2
2017-Dec-03 01:01N 55°48' E 015°55'713.1
2017-Dec-03 00:30N 55°44' E 015°45'613.0
2017-Dec-03 00:00N 55°41' E 015°35'612.9
2017-Dec-02 23:30N 55°38' E 015°25'612.9
2017-Dec-02 23:00N 55°35' E 015°15'612.9
2017-Dec-02 22:31N 55°32' E 015°05'612.9
2017-Dec-02 22:01N 55°29' E 014°55'612.9
2017-Dec-02 21:31N 55°26' E 014°45'612.4
2017-Dec-02 21:01N 55°23' E 014°36'612.6
2017-Dec-02 20:30N 55°18' E 014°29'612.8
2017-Dec-02 20:00N 55°13' E 014°22'611.8
2017-Dec-02 19:30N 55°11' E 014°12'2812.9
2017-Dec-02 17:19N 55°13' E 013°23'613.2
2017-Dec-02 16:50N 55°14' E 013°12'412.9
2017-Dec-02 16:30N 55°14' E 013°04'613.0
2017-Dec-02 16:00N 55°15' E 012°53'712.8
2017-Dec-02 15:29N 55°17' E 012°42'4 9.3
2017-Dec-02 15:00N 55°21' E 012°39'611.7
2017-Dec-02 14:30N 55°27' E 012°41'511.0
2017-Dec-02 14:00N 55°32' E 012°42'4 8.6
2017-Dec-02 13:30N 55°36' E 012°42'510.3
2017-Dec-02 13:00N 55°41' E 012°41'612.6
2017-Dec-02 12:31N 55°48' E 012°42'612.8
2017-Dec-02 12:00N 55°54' E 012°40'612.6
2017-Dec-02 11:30N 56°00' E 012°40'510.3
2017-Dec-02 11:00N 56°05' E 012°36'3 6.7
2017-Dec-02 10:30N 56°07' E 012°31'510.9
2017-Dec-02 10:00N 56°10' E 012°23'612.7
2017-Dec-02 09:30N 56°14' E 012°14'5911.9
2017-Dec-02 04:35N 57°09' E 011°38'111.7
2017-Dec-02 04:30N 57°10' E 011°37'612.0
2017-Dec-02 04:00N 57°16' E 011°33'612.4
2017-Dec-02 03:30N 57°21' E 011°29'612.1
2017-Dec-02 03:01N 57°27' E 011°24'612.0
2017-Dec-02 02:30N 57°31' E 011°17'612.0
2017-Dec-02 02:01N 57°36' E 011°09'612.4
2017-Dec-02 01:31N 57°40' E 011°00'612.7
2017-Dec-02 01:01N 57°44' E 010°51'612.0
2017-Dec-02 00:30N 57°48' E 010°42'612.5
2017-Dec-02 00:00N 57°48' E 010°31'612.8
2017-Dec-01 23:30N 57°48' E 010°19'  
Track history (hours):
 
Tides and Currents Weather Stations Pressure Air Temp Water Temp Dewpoint Dewpoint Depression Visibility Wind Speed Wind Dir Waves Ship Positions

Azamara Quest

Last reported at 2017-Dec-11 17:00 UTC. Time now 2017-Dec-12 04:24 UTC.
Position N 51°50' E 001°56'.

Length 184 m; draft 10.5 m.

Type: Tanker. MMSI: 538005401.

Date/timePositionNaut miles runAvg speedWind from/ knotsBaromVisibWave heightAir tempDewpointWater temp
2017-Dec-11 17:00N 51°50' E 001°56'713.8
2017-Dec-11 16:30N 51°53' E 002°06'43012.5
2017-Dec-10 06:02N 57°44' E 009°17'011.8
2017-Dec-10 06:00N 57°44' E 009°18'612.0
2017-Dec-10 05:30N 57°46' E 009°29'612.2
2017-Dec-10 04:59N 57°49' E 009°39'3111.6
2017-Dec-10 02:17N 57°50' E 010°38'311.4
2017-Dec-10 02:00N 57°49' E 010°44'612.6
2017-Dec-10 01:30N 57°45' E 010°52'612.9
2017-Dec-10 01:00N 57°40' E 011°01'612.7
2017-Dec-10 00:30N 57°36' E 011°10'612.1
2017-Dec-10 00:00N 57°32' E 011°18'612.1
2017-Dec-09 23:30N 57°27' E 011°26'612.4
2017-Dec-09 23:00N 57°22' E 011°30'612.3
2017-Dec-09 22:30N 57°16' E 011°34'612.5
2017-Dec-09 22:01N 57°10' E 011°38'612.6
2017-Dec-09 21:30N 57°04' E 011°42'11210.8
2017-Dec-09 11:07N 55°14' E 011°06'111.0
2017-Dec-09 11:00N 55°12' E 011°06'611.7
2017-Dec-09 10:30N 55°08' E 010°60'611.4
2017-Dec-09 10:00N 55°02' E 011°00'611.2
2017-Dec-09 09:31N 54°57' E 010°56'5 9.8
2017-Dec-09 09:00N 54°53' E 010°51'510.5
2017-Dec-09 08:31N 54°48' E 010°50'611.5
2017-Dec-09 08:00N 54°42' E 010°47'510.8
2017-Dec-09 07:30N 54°39' E 010°54'510.6
2017-Dec-09 07:01N 54°36' E 011°02'510.7
2017-Dec-09 06:30N 54°36' E 011°11'510.9
2017-Dec-09 06:00N 54°33' E 011°19'611.1
2017-Dec-09 05:30N 54°31' E 011°28'510.7
2017-Dec-09 05:01N 54°29' E 011°36'510.9
2017-Dec-09 04:30N 54°27' E 011°45'1610.3
2017-Dec-09 03:00N 54°28' E 012°12'510.8
2017-Dec-09 02:31N 54°33' E 012°15'6010.7
2017-Dec-08 20:56N 55°01' E 013°47'911.6
2017-Dec-08 20:11N 55°04' E 014°01'611.4
2017-Dec-08 19:40N 55°08' E 014°09'311.9
2017-Dec-08 19:27N 55°09' E 014°12'712.1
2017-Dec-08 18:52N 55°15' E 014°20'412.1
2017-Dec-08 18:31N 55°18' E 014°24'612.1
2017-Dec-08 18:00N 55°23' E 014°31'711.8
2017-Dec-08 17:25N 55°28' E 014°40'512.0
2017-Dec-08 17:00N 55°30' E 014°48'712.1
2017-Dec-08 16:27N 55°33' E 014°58'612.1
2017-Dec-08 15:57N 55°36' E 015°08'511.8
2017-Dec-08 15:30N 55°38' E 015°16'611.8
2017-Dec-08 15:00N 55°40' E 015°26'611.7
2017-Dec-08 14:30N 55°42' E 015°36'611.7
2017-Dec-08 14:00N 55°43' E 015°46'611.8
2017-Dec-08 13:30N 55°44' E 015°56'611.6
2017-Dec-08 13:00N 55°46' E 016°06'611.7
2017-Dec-08 12:30N 55°47' E 016°16'611.6
2017-Dec-08 12:00N 55°49' E 016°26'611.5
2017-Dec-08 11:31N 55°50' E 016°36'30611.0
2017-Dec-07 07:40N 59°35' E 023°03'212.9
2017-Dec-07 07:30N 59°36' E 023°07'613.0
2017-Dec-07 07:00N 59°38' E 023°19'713.0
2017-Dec-07 06:30N 59°40' E 023°32'713.1
2017-Dec-07 06:00N 59°41' E 023°44'713.2
2017-Dec-07 05:30N 59°43' E 023°57'713.3
2017-Dec-07 05:00N 59°45' E 024°10'613.3
2017-Dec-07 04:31N 59°47' E 024°22'713.2
2017-Dec-07 04:00N 59°48' E 024°35'713.4
2017-Dec-07 03:30N 59°50' E 024°48'713.4
2017-Dec-07 03:00N 59°51' E 025°01'612.9
2017-Dec-07 02:30N 59°53' E 025°13'713.2
2017-Dec-07 01:57N 59°57' E 025°25'612.9
2017-Dec-07 01:30N 60°01' E 025°33'  
2017-Dec-04 10:30N 59°39' E 024°28'612.3
2017-Dec-04 10:00N 59°34' E 024°25'510.4
2017-Dec-04 09:30N 59°29' E 024°31'0 0.3
2017-Dec-04 09:00N 59°29' E 024°31'0 0.0
2017-Dec-04 08:30N 59°29' E 024°31'0 0.1
2017-Dec-04 08:00N 59°29' E 024°31'0 0.0
2017-Dec-04 07:30N 59°29' E 024°31'0 0.0
2017-Dec-04 07:00N 59°29' E 024°31'0 0.0
2017-Dec-04 06:30N 59°29' E 024°31'0 0.4
2017-Dec-04 06:00N 59°29' E 024°31'1 2.6
2017-Dec-04 05:31N 59°30' E 024°28'612.5
2017-Dec-04 05:00N 59°29' E 024°16'712.6
2017-Dec-04 04:28N 59°29' E 024°02'1512.6
2017-Dec-04 03:15N 59°28' E 023°33'312.5
2017-Dec-04 02:59N 59°28' E 023°26'612.6
2017-Dec-04 02:30N 59°27' E 023°14'29312.6
2017-Dec-03 03:19N 56°02' E 016°43'413.3
2017-Dec-03 03:00N 56°00' E 016°37'713.1
2017-Dec-03 02:30N 55°57' E 016°26'713.2
2017-Dec-03 02:00N 55°54' E 016°16'713.1
2017-Dec-03 01:31N 55°51' E 016°06'713.2
2017-Dec-03 01:01N 55°48' E 015°55'713.1
2017-Dec-03 00:30N 55°44' E 015°45'613.0
2017-Dec-03 00:00N 55°41' E 015°35'612.9
2017-Dec-02 23:30N 55°38' E 015°25'612.9
2017-Dec-02 23:00N 55°35' E 015°15'612.9
2017-Dec-02 22:31N 55°32' E 015°05'612.9
2017-Dec-02 22:01N 55°29' E 014°55'612.9
2017-Dec-02 21:31N 55°26' E 014°45'612.4
2017-Dec-02 21:01N 55°23' E 014°36'612.6
2017-Dec-02 20:30N 55°18' E 014°29'612.8
2017-Dec-02 20:00N 55°13' E 014°22'611.8
2017-Dec-02 19:30N 55°11' E 014°12'2812.9
2017-Dec-02 17:19N 55°13' E 013°23'613.2
2017-Dec-02 16:50N 55°14' E 013°12'412.9
2017-Dec-02 16:30N 55°14' E 013°04'613.0
2017-Dec-02 16:00N 55°15' E 012°53'712.8
2017-Dec-02 15:29N 55°17' E 012°42'4 9.3
2017-Dec-02 15:00N 55°21' E 012°39'611.7
2017-Dec-02 14:30N 55°27' E 012°41'511.0
2017-Dec-02 14:00N 55°32' E 012°42'4 8.6
2017-Dec-02 13:30N 55°36' E 012°42'510.3
2017-Dec-02 13:00N 55°41' E 012°41'612.6
2017-Dec-02 12:31N 55°48' E 012°42'612.8
2017-Dec-02 12:00N 55°54' E 012°40'612.6
2017-Dec-02 11:30N 56°00' E 012°40'510.3
2017-Dec-02 11:00N 56°05' E 012°36'3 6.7
2017-Dec-02 10:30N 56°07' E 012°31'510.9
2017-Dec-02 10:00N 56°10' E 012°23'612.7
2017-Dec-02 09:30N 56°14' E 012°14'5911.9
2017-Dec-02 04:35N 57°09' E 011°38'111.7
2017-Dec-02 04:30N 57°10' E 011°37'612.0
2017-Dec-02 04:00N 57°16' E 011°33'612.4
2017-Dec-02 03:30N 57°21' E 011°29'612.1
2017-Dec-02 03:01N 57°27' E 011°24'612.0
2017-Dec-02 02:30N 57°31' E 011°17'612.0
2017-Dec-02 02:01N 57°36' E 011°09'612.4
2017-Dec-02 01:31N 57°40' E 011°00'612.7
2017-Dec-02 01:01N 57°44' E 010°51'612.0
2017-Dec-02 00:30N 57°48' E 010°42'612.5
2017-Dec-02 00:00N 57°48' E 010°31'612.8
2017-Dec-01 23:30N 57°48' E 010°19'  

Dump ship's entire track history